sensor_id;sensor_type;location;lat;lon;timestamp;P1;durP1;ratioP1;P2;durP2;ratioP2
39502;SDS011;26970;49.900;10.774;2022-08-27T00:02:00;17.08;;;10.45;;
39502;SDS011;26970;49.900;10.774;2022-08-27T00:04:26;17.60;;;10.15;;
39502;SDS011;26970;49.900;10.774;2022-08-27T00:06:52;16.42;;;10.43;;
39502;SDS011;26970;49.900;10.774;2022-08-27T00:09:18;16.17;;;10.52;;
39502;SDS011;26970;49.900;10.774;2022-08-27T00:11:44;15.73;;;10.13;;
39502;SDS011;26970;49.900;10.774;2022-08-27T00:14:10;16.25;;;9.80;;
39502;SDS011;26970;49.900;10.774;2022-08-27T00:16:36;15.43;;;9.25;;
39502;SDS011;26970;49.900;10.774;2022-08-27T00:19:01;12.70;;;9.50;;
39502;SDS011;26970;49.900;10.774;2022-08-27T00:21:27;15.82;;;10.02;;
39502;SDS011;26970;49.900;10.774;2022-08-27T00:23:52;14.07;;;9.98;;
39502;SDS011;26970;49.900;10.774;2022-08-27T00:26:18;15.70;;;11.40;;
39502;SDS011;26970;49.900;10.774;2022-08-27T00:28:43;16.83;;;11.90;;
39502;SDS011;26970;49.900;10.774;2022-08-27T00:31:09;16.27;;;12.75;;
39502;SDS011;26970;49.900;10.774;2022-08-27T00:33:35;14.13;;;11.00;;
39502;SDS011;26970;49.900;10.774;2022-08-27T00:36:01;16.67;;;10.27;;
39502;SDS011;26970;49.900;10.774;2022-08-27T00:38:28;14.13;;;9.68;;
39502;SDS011;26970;49.900;10.774;2022-08-27T00:40:54;13.38;;;8.95;;
39502;SDS011;26970;49.900;10.774;2022-08-27T00:43:22;13.35;;;9.07;;
39502;SDS011;26970;49.900;10.774;2022-08-27T00:46:12;12.45;;;8.30;;
39502;SDS011;26970;49.900;10.774;2022-08-27T00:48:45;13.60;;;7.90;;
39502;SDS011;26970;49.900;10.774;2022-08-27T00:51:13;14.55;;;8.95;;
39502;SDS011;26970;49.900;10.774;2022-08-27T00:53:39;16.35;;;9.32;;
39502;SDS011;26970;49.900;10.774;2022-08-27T00:56:10;18.00;;;8.85;;
39502;SDS011;26970;49.900;10.774;2022-08-27T00:58:44;14.85;;;8.25;;
39502;SDS011;26970;49.900;10.774;2022-08-27T01:01:14;12.32;;;8.68;;
39502;SDS011;26970;49.900;10.774;2022-08-27T01:03:43;12.13;;;7.47;;
39502;SDS011;26970;49.900;10.774;2022-08-27T01:06:11;10.63;;;7.00;;
39502;SDS011;26970;49.900;10.774;2022-08-27T01:08:40;11.48;;;7.47;;
39502;SDS011;26970;49.900;10.774;2022-08-27T01:11:13;11.43;;;6.93;;
39502;SDS011;26970;49.900;10.774;2022-08-27T01:13:38;11.57;;;8.07;;
39502;SDS011;26970;49.900;10.774;2022-08-27T01:16:04;13.57;;;7.85;;
39502;SDS011;26970;49.900;10.774;2022-08-27T01:18:33;12.30;;;6.68;;
39502;SDS011;26970;49.900;10.774;2022-08-27T01:26:50;12.45;;;7.05;;
39502;SDS011;26970;49.900;10.774;2022-08-27T01:29:16;12.52;;;7.28;;
39502;SDS011;26970;49.900;10.774;2022-08-27T01:31:42;12.10;;;7.65;;
39502;SDS011;26970;49.900;10.774;2022-08-27T01:34:17;13.65;;;7.20;;
39502;SDS011;26970;49.900;10.774;2022-08-27T01:36:43;9.05;;;6.80;;
39502;SDS011;26970;49.900;10.774;2022-08-27T01:39:08;8.98;;;6.93;;
39502;SDS011;26970;49.900;10.774;2022-08-27T01:41:34;9.10;;;7.38;;
39502;SDS011;26970;49.900;10.774;2022-08-27T01:43:59;13.20;;;6.97;;
39502;SDS011;26970;49.900;10.774;2022-08-27T01:46:26;14.70;;;7.47;;
39502;SDS011;26970;49.900;10.774;2022-08-27T01:48:52;15.52;;;7.40;;
39502;SDS011;26970;49.900;10.774;2022-08-27T01:51:19;10.27;;;7.65;;
39502;SDS011;26970;49.900;10.774;2022-08-27T01:53:45;12.70;;;8.00;;
39502;SDS011;26970;49.900;10.774;2022-08-27T01:56:11;11.60;;;7.30;;
39502;SDS011;26970;49.900;10.774;2022-08-27T01:58:36;13.75;;;8.07;;
39502;SDS011;26970;49.900;10.774;2022-08-27T02:01:04;13.30;;;7.53;;
39502;SDS011;26970;49.900;10.774;2022-08-27T02:03:34;11.35;;;7.95;;
39502;SDS011;26970;49.900;10.774;2022-08-27T02:06:02;10.68;;;7.93;;
39502;SDS011;26970;49.900;10.774;2022-08-27T02:08:30;11.20;;;7.70;;
39502;SDS011;26970;49.900;10.774;2022-08-27T02:10:55;13.27;;;7.93;;
39502;SDS011;26970;49.900;10.774;2022-08-27T02:13:21;13.13;;;9.98;;
39502;SDS011;26970;49.900;10.774;2022-08-27T02:15:47;14.73;;;8.63;;
39502;SDS011;26970;49.900;10.774;2022-08-27T02:18:13;13.23;;;9.50;;
39502;SDS011;26970;49.900;10.774;2022-08-27T02:20:39;15.13;;;9.30;;
39502;SDS011;26970;49.900;10.774;2022-08-27T02:23:09;12.75;;;9.15;;
39502;SDS011;26970;49.900;10.774;2022-08-27T02:25:35;13.65;;;9.35;;
39502;SDS011;26970;49.900;10.774;2022-08-27T02:28:01;14.02;;;10.00;;
39502;SDS011;26970;49.900;10.774;2022-08-27T02:30:28;16.40;;;9.45;;
39502;SDS011;26970;49.900;10.774;2022-08-27T02:32:55;13.52;;;8.77;;
39502;SDS011;26970;49.900;10.774;2022-08-27T02:35:22;11.85;;;9.20;;
39502;SDS011;26970;49.900;10.774;2022-08-27T02:37:48;16.55;;;9.43;;
39502;SDS011;26970;49.900;10.774;2022-08-27T02:40:15;12.70;;;9.93;;
39502;SDS011;26970;49.900;10.774;2022-08-27T02:42:43;13.77;;;9.48;;
39502;SDS011;26970;49.900;10.774;2022-08-27T02:45:09;14.75;;;8.80;;
39502;SDS011;26970;49.900;10.774;2022-08-27T02:47:36;15.63;;;9.75;;
39502;SDS011;26970;49.900;10.774;2022-08-27T02:50:01;14.88;;;10.23;;
39502;SDS011;26970;49.900;10.774;2022-08-27T02:52:28;13.95;;;9.68;;
39502;SDS011;26970;49.900;10.774;2022-08-27T02:54:54;15.20;;;9.73;;
39502;SDS011;26970;49.900;10.774;2022-08-27T02:57:21;13.70;;;9.73;;
39502;SDS011;26970;49.900;10.774;2022-08-27T02:59:47;14.88;;;9.80;;
39502;SDS011;26970;49.900;10.774;2022-08-27T03:02:14;13.65;;;9.32;;
39502;SDS011;26970;49.900;10.774;2022-08-27T03:04:39;14.38;;;9.70;;
39502;SDS011;26970;49.900;10.774;2022-08-27T03:07:05;15.88;;;10.02;;
39502;SDS011;26970;49.900;10.774;2022-08-27T03:09:32;14.93;;;9.52;;
39502;SDS011;26970;49.900;10.774;2022-08-27T03:11:58;14.30;;;9.43;;
39502;SDS011;26970;49.900;10.774;2022-08-27T03:14:24;12.35;;;9.25;;
39502;SDS011;26970;49.900;10.774;2022-08-27T03:16:50;12.43;;;9.57;;
39502;SDS011;26970;49.900;10.774;2022-08-27T03:19:15;14.75;;;10.13;;
39502;SDS011;26970;49.900;10.774;2022-08-27T03:21:41;15.40;;;10.20;;
39502;SDS011;26970;49.900;10.774;2022-08-27T03:24:06;16.58;;;10.05;;
39502;SDS011;26970;49.900;10.774;2022-08-27T03:26:32;12.93;;;10.07;;
39502;SDS011;26970;49.900;10.774;2022-08-27T03:28:58;13.65;;;10.05;;
39502;SDS011;26970;49.900;10.774;2022-08-27T03:31:24;13.85;;;10.10;;
39502;SDS011;26970;49.900;10.774;2022-08-27T03:33:55;12.98;;;9.70;;
39502;SDS011;26970;49.900;10.774;2022-08-27T03:36:24;14.63;;;10.27;;
39502;SDS011;26970;49.900;10.774;2022-08-27T03:38:51;15.15;;;9.85;;
39502;SDS011;26970;49.900;10.774;2022-08-27T03:41:17;13.93;;;9.57;;
39502;SDS011;26970;49.900;10.774;2022-08-27T03:43:43;16.52;;;11.13;;
39502;SDS011;26970;49.900;10.774;2022-08-27T03:46:09;12.68;;;9.57;;
39502;SDS011;26970;49.900;10.774;2022-08-27T03:48:35;14.25;;;10.77;;
39502;SDS011;26970;49.900;10.774;2022-08-27T03:51:05;12.52;;;9.48;;
39502;SDS011;26970;49.900;10.774;2022-08-27T03:55:59;12.00;;;9.52;;
39502;SDS011;26970;49.900;10.774;2022-08-27T03:58:24;11.70;;;9.98;;
39502;SDS011;26970;49.900;10.774;2022-08-27T04:00:50;12.68;;;9.93;;
39502;SDS011;26970;49.900;10.774;2022-08-27T04:03:16;14.05;;;10.95;;
39502;SDS011;26970;49.900;10.774;2022-08-27T04:05:41;14.80;;;11.23;;
39502;SDS011;26970;49.900;10.774;2022-08-27T04:08:08;15.43;;;10.63;;
39502;SDS011;26970;49.900;10.774;2022-08-27T04:10:34;18.55;;;11.63;;
39502;SDS011;26970;49.900;10.774;2022-08-27T04:13:03;12.95;;;11.18;;
39502;SDS011;26970;49.900;10.774;2022-08-27T04:15:28;15.98;;;10.55;;
39502;SDS011;26970;49.900;10.774;2022-08-27T04:17:54;13.32;;;10.57;;
39502;SDS011;26970;49.900;10.774;2022-08-27T04:20:19;13.57;;;10.63;;
39502;SDS011;26970;49.900;10.774;2022-08-27T04:22:45;15.98;;;11.98;;
39502;SDS011;26970;49.900;10.774;2022-08-27T04:25:12;15.00;;;11.15;;
39502;SDS011;26970;49.900;10.774;2022-08-27T04:27:37;17.02;;;11.43;;
39502;SDS011;26970;49.900;10.774;2022-08-27T04:30:03;14.07;;;12.27;;
39502;SDS011;26970;49.900;10.774;2022-08-27T04:32:29;19.60;;;13.35;;
39502;SDS011;26970;49.900;10.774;2022-08-27T04:34:56;18.15;;;12.73;;
39502;SDS011;26970;49.900;10.774;2022-08-27T04:37:23;18.40;;;13.63;;
39502;SDS011;26970;49.900;10.774;2022-08-27T04:39:50;20.45;;;14.40;;
39502;SDS011;26970;49.900;10.774;2022-08-27T04:42:17;20.05;;;14.52;;
39502;SDS011;26970;49.900;10.774;2022-08-27T04:44:44;21.27;;;15.45;;
39502;SDS011;26970;49.900;10.774;2022-08-27T04:47:11;20.05;;;14.65;;
39502;SDS011;26970;49.900;10.774;2022-08-27T04:49:37;20.05;;;15.00;;
39502;SDS011;26970;49.900;10.774;2022-08-27T04:52:03;20.88;;;16.10;;
39502;SDS011;26970;49.900;10.774;2022-08-27T04:54:30;20.85;;;15.07;;
39502;SDS011;26970;49.900;10.774;2022-08-27T04:56:56;20.90;;;15.30;;
39502;SDS011;26970;49.900;10.774;2022-08-27T04:59:21;19.63;;;15.43;;
39502;SDS011;26970;49.900;10.774;2022-08-27T05:01:47;21.23;;;15.50;;
39502;SDS011;26970;49.900;10.774;2022-08-27T05:04:13;25.58;;;16.05;;
39502;SDS011;26970;49.900;10.774;2022-08-27T05:06:40;18.90;;;15.52;;
39502;SDS011;26970;49.900;10.774;2022-08-27T05:09:08;21.75;;;15.18;;
39502;SDS011;26970;49.900;10.774;2022-08-27T05:11:34;21.48;;;16.75;;
39502;SDS011;26970;49.900;10.774;2022-08-27T05:14:03;25.42;;;15.38;;
39502;SDS011;26970;49.900;10.774;2022-08-27T05:16:30;21.15;;;15.77;;
39502;SDS011;26970;49.900;10.774;2022-08-27T05:18:57;20.77;;;16.17;;
39502;SDS011;26970;49.900;10.774;2022-08-27T05:21:25;22.88;;;16.95;;
39502;SDS011;26970;49.900;10.774;2022-08-27T05:23:53;23.45;;;16.20;;
39502;SDS011;26970;49.900;10.774;2022-08-27T05:26:21;22.27;;;16.73;;
39502;SDS011;26970;49.900;10.774;2022-08-27T05:28:47;23.65;;;16.70;;
39502;SDS011;26970;49.900;10.774;2022-08-27T05:31:13;22.55;;;15.85;;
39502;SDS011;26970;49.900;10.774;2022-08-27T05:33:39;19.98;;;16.92;;
39502;SDS011;26970;49.900;10.774;2022-08-27T05:36:06;24.48;;;17.45;;
39502;SDS011;26970;49.900;10.774;2022-08-27T05:38:38;25.10;;;16.77;;
39502;SDS011;26970;49.900;10.774;2022-08-27T05:41:05;25.65;;;17.90;;
39502;SDS011;26970;49.900;10.774;2022-08-27T05:43:34;24.55;;;17.42;;
39502;SDS011;26970;49.900;10.774;2022-08-27T05:46:04;30.33;;;19.17;;
39502;SDS011;26970;49.900;10.774;2022-08-27T05:48:32;33.47;;;20.50;;
39502;SDS011;26970;49.900;10.774;2022-08-27T05:51:05;25.52;;;18.77;;
39502;SDS011;26970;49.900;10.774;2022-08-27T05:53:33;28.63;;;19.95;;
39502;SDS011;26970;49.900;10.774;2022-08-27T05:55:59;30.77;;;22.00;;
39502;SDS011;26970;49.900;10.774;2022-08-27T05:58:25;35.90;;;24.63;;
39502;SDS011;26970;49.900;10.774;2022-08-27T06:01:10;32.13;;;22.83;;
39502;SDS011;26970;49.900;10.774;2022-08-27T06:03:36;31.50;;;22.83;;
39502;SDS011;26970;49.900;10.774;2022-08-27T06:06:06;38.92;;;24.90;;
39502;SDS011;26970;49.900;10.774;2022-08-27T06:08:33;32.83;;;21.67;;
39502;SDS011;26970;49.900;10.774;2022-08-27T06:11:00;19.13;;;13.15;;
39502;SDS011;26970;49.900;10.774;2022-08-27T06:13:26;24.25;;;17.75;;
39502;SDS011;26970;49.900;10.774;2022-08-27T06:16:02;11.98;;;9.68;;
39502;SDS011;26970;49.900;10.774;2022-08-27T06:18:33;17.30;;;12.32;;
39502;SDS011;26970;49.900;10.774;2022-08-27T06:21:05;8.98;;;7.18;;
39502;SDS011;26970;49.900;10.774;2022-08-27T06:23:31;9.57;;;7.93;;
39502;SDS011;26970;49.900;10.774;2022-08-27T06:25:57;10.40;;;8.27;;
39502;SDS011;26970;49.900;10.774;2022-08-27T06:28:24;11.27;;;8.85;;
39502;SDS011;26970;49.900;10.774;2022-08-27T06:30:53;10.40;;;8.52;;
39502;SDS011;26970;49.900;10.774;2022-08-27T06:33:30;12.80;;;9.68;;
39502;SDS011;26970;49.900;10.774;2022-08-27T06:35:59;12.77;;;8.88;;
39502;SDS011;26970;49.900;10.774;2022-08-27T06:38:25;10.77;;;8.05;;
39502;SDS011;26970;49.900;10.774;2022-08-27T06:40:52;12.93;;;8.77;;
39502;SDS011;26970;49.900;10.774;2022-08-27T06:43:18;11.75;;;9.15;;
39502;SDS011;26970;49.900;10.774;2022-08-27T06:45:44;10.40;;;8.50;;
39502;SDS011;26970;49.900;10.774;2022-08-27T06:48:10;14.43;;;10.32;;
39502;SDS011;26970;49.900;10.774;2022-08-27T06:50:39;12.88;;;9.65;;
39502;SDS011;26970;49.900;10.774;2022-08-27T06:53:06;13.45;;;10.98;;
39502;SDS011;26970;49.900;10.774;2022-08-27T06:55:32;11.15;;;9.25;;
39502;SDS011;26970;49.900;10.774;2022-08-27T06:58:04;13.02;;;10.20;;
39502;SDS011;26970;49.900;10.774;2022-08-27T07:00:29;13.27;;;9.20;;
39502;SDS011;26970;49.900;10.774;2022-08-27T07:02:55;11.45;;;9.23;;
39502;SDS011;26970;49.900;10.774;2022-08-27T07:05:21;12.25;;;8.95;;
39502;SDS011;26970;49.900;10.774;2022-08-27T07:07:46;11.57;;;9.80;;
39502;SDS011;26970;49.900;10.774;2022-08-27T07:10:12;11.80;;;8.88;;
39502;SDS011;26970;49.900;10.774;2022-08-27T07:12:37;12.15;;;8.57;;
39502;SDS011;26970;49.900;10.774;2022-08-27T07:15:03;14.15;;;9.23;;
39502;SDS011;26970;49.900;10.774;2022-08-27T07:17:29;10.30;;;9.05;;
39502;SDS011;26970;49.900;10.774;2022-08-27T07:19:54;10.63;;;8.95;;
39502;SDS011;26970;49.900;10.774;2022-08-27T07:22:20;11.45;;;8.48;;
39502;SDS011;26970;49.900;10.774;2022-08-27T07:24:46;9.38;;;7.60;;
39502;SDS011;26970;49.900;10.774;2022-08-27T07:27:11;14.05;;;7.70;;
39502;SDS011;26970;49.900;10.774;2022-08-27T07:29:37;9.90;;;8.48;;
39502;SDS011;26970;49.900;10.774;2022-08-27T07:32:03;9.93;;;7.72;;
39502;SDS011;26970;49.900;10.774;2022-08-27T07:34:29;10.00;;;7.85;;
39502;SDS011;26970;49.900;10.774;2022-08-27T07:36:54;11.00;;;7.78;;
39502;SDS011;26970;49.900;10.774;2022-08-27T07:39:20;8.77;;;6.95;;
39502;SDS011;26970;49.900;10.774;2022-08-27T07:41:45;8.68;;;6.93;;
39502;SDS011;26970;49.900;10.774;2022-08-27T07:44:30;9.63;;;7.45;;
39502;SDS011;26970;49.900;10.774;2022-08-27T07:46:55;7.85;;;7.05;;
39502;SDS011;26970;49.900;10.774;2022-08-27T07:49:22;8.05;;;6.90;;
39502;SDS011;26970;49.900;10.774;2022-08-27T07:51:49;11.25;;;7.88;;
39502;SDS011;26970;49.900;10.774;2022-08-27T07:54:15;9.65;;;7.75;;
39502;SDS011;26970;49.900;10.774;2022-08-27T07:56:40;10.77;;;7.65;;
39502;SDS011;26970;49.900;10.774;2022-08-27T07:59:06;10.77;;;8.48;;
39502;SDS011;26970;49.900;10.774;2022-08-27T08:01:32;8.20;;;7.20;;
39502;SDS011;26970;49.900;10.774;2022-08-27T08:03:58;8.93;;;8.02;;
39502;SDS011;26970;49.900;10.774;2022-08-27T08:06:24;10.77;;;8.60;;
39502;SDS011;26970;49.900;10.774;2022-08-27T08:08:49;11.52;;;8.82;;
39502;SDS011;26970;49.900;10.774;2022-08-27T08:11:16;10.25;;;8.30;;
39502;SDS011;26970;49.900;10.774;2022-08-27T08:13:42;9.35;;;8.35;;
39502;SDS011;26970;49.900;10.774;2022-08-27T08:16:09;9.88;;;8.52;;
39502;SDS011;26970;49.900;10.774;2022-08-27T08:18:35;9.80;;;8.73;;
39502;SDS011;26970;49.900;10.774;2022-08-27T08:21:05;10.13;;;8.48;;
39502;SDS011;26970;49.900;10.774;2022-08-27T08:23:32;9.07;;;7.30;;
39502;SDS011;26970;49.900;10.774;2022-08-27T08:25:58;8.20;;;7.00;;
39502;SDS011;26970;49.900;10.774;2022-08-27T08:28:25;7.50;;;6.38;;
39502;SDS011;26970;49.900;10.774;2022-08-27T08:30:52;7.60;;;6.70;;
39502;SDS011;26970;49.900;10.774;2022-08-27T08:33:18;9.90;;;7.88;;
39502;SDS011;26970;49.900;10.774;2022-08-27T08:35:44;10.57;;;8.63;;
39502;SDS011;26970;49.900;10.774;2022-08-27T08:38:10;10.43;;;7.57;;
39502;SDS011;26970;49.900;10.774;2022-08-27T08:40:39;10.30;;;8.73;;
39502;SDS011;26970;49.900;10.774;2022-08-27T08:45:37;10.70;;;8.65;;
39502;SDS011;26970;49.900;10.774;2022-08-27T08:48:17;12.50;;;9.77;;
39502;SDS011;26970;49.900;10.774;2022-08-27T08:53:27;12.52;;;9.98;;
39502;SDS011;26970;49.900;10.774;2022-08-27T08:56:09;9.93;;;8.38;;
39502;SDS011;26970;49.900;10.774;2022-08-27T08:58:47;10.25;;;8.23;;
39502;SDS011;26970;49.900;10.774;2022-08-27T09:01:19;11.48;;;8.63;;
39502;SDS011;26970;49.900;10.774;2022-08-27T09:03:48;12.50;;;9.75;;
39502;SDS011;26970;49.900;10.774;2022-08-27T09:08:52;14.00;;;10.82;;
39502;SDS011;26970;49.900;10.774;2022-08-27T09:14:38;14.23;;;11.88;;
39502;SDS011;26970;49.900;10.774;2022-08-27T09:17:10;15.77;;;12.13;;
39502;SDS011;26970;49.900;10.774;2022-08-27T09:19:35;16.48;;;13.10;;
39502;SDS011;26970;49.900;10.774;2022-08-27T09:22:20;17.45;;;13.88;;
39502;SDS011;26970;49.900;10.774;2022-08-27T09:25:08;16.90;;;14.27;;
39502;SDS011;26970;49.900;10.774;2022-08-27T09:27:37;16.83;;;14.07;;
39502;SDS011;26970;49.900;10.774;2022-08-27T09:30:27;21.30;;;16.90;;
39502;SDS011;26970;49.900;10.774;2022-08-27T09:32:54;23.02;;;17.10;;
39502;SDS011;26970;49.900;10.774;2022-08-27T09:35:23;18.00;;;15.13;;
39502;SDS011;26970;49.900;10.774;2022-08-27T09:37:51;21.08;;;15.68;;
39502;SDS011;26970;49.900;10.774;2022-08-27T09:40:29;24.65;;;17.15;;
39502;SDS011;26970;49.900;10.774;2022-08-27T09:43:04;19.48;;;17.38;;
39502;SDS011;26970;49.900;10.774;2022-08-27T09:45:32;27.60;;;20.25;;
39502;SDS011;26970;49.900;10.774;2022-08-27T09:48:04;24.90;;;18.85;;
39502;SDS011;26970;49.900;10.774;2022-08-27T09:50:36;24.85;;;18.38;;
39502;SDS011;26970;49.900;10.774;2022-08-27T09:53:15;23.02;;;17.27;;
39502;SDS011;26970;49.900;10.774;2022-08-27T09:56:08;22.83;;;18.98;;
39502;SDS011;26970;49.900;10.774;2022-08-27T09:58:46;27.98;;;19.75;;
39502;SDS011;26970;49.900;10.774;2022-08-27T10:03:43;24.58;;;19.27;;
39502;SDS011;26970;49.900;10.774;2022-08-27T10:06:09;30.20;;;22.15;;
39502;SDS011;26970;49.900;10.774;2022-08-27T10:13:59;26.88;;;20.90;;
39502;SDS011;26970;49.900;10.774;2022-08-27T10:16:41;27.38;;;20.35;;
39502;SDS011;26970;49.900;10.774;2022-08-27T10:28:14;22.48;;;16.20;;
39502;SDS011;26970;49.900;10.774;2022-08-27T10:34:50;19.10;;;14.80;;
39502;SDS011;26970;49.900;10.774;2022-08-27T10:36:56;22.88;;;15.32;;
39502;SDS011;26970;49.900;10.774;2022-08-27T10:39:37;19.00;;;14.73;;
39502;SDS011;26970;49.900;10.774;2022-08-27T10:42:20;17.38;;;13.57;;
39502;SDS011;26970;49.900;10.774;2022-08-27T10:44:54;17.80;;;13.73;;
39502;SDS011;26970;49.900;10.774;2022-08-27T10:47:48;17.42;;;13.40;;
39502;SDS011;26970;49.900;10.774;2022-08-27T10:50:39;17.70;;;13.43;;
39502;SDS011;26970;49.900;10.774;2022-08-27T10:53:29;15.30;;;11.23;;
39502;SDS011;26970;49.900;10.774;2022-08-27T10:58:56;14.98;;;11.80;;
39502;SDS011;26970;49.900;10.774;2022-08-27T11:04:11;18.63;;;13.15;;
39502;SDS011;26970;49.900;10.774;2022-08-27T11:06:46;14.98;;;12.35;;
39502;SDS011;26970;49.900;10.774;2022-08-27T11:09:29;17.98;;;13.15;;
39502;SDS011;26970;49.900;10.774;2022-08-27T11:12:12;14.63;;;12.27;;
39502;SDS011;26970;49.900;10.774;2022-08-27T11:14:44;16.83;;;11.60;;
39502;SDS011;26970;49.900;10.774;2022-08-27T11:17:25;18.50;;;13.20;;
39502;SDS011;26970;49.900;10.774;2022-08-27T11:20:10;14.43;;;11.30;;
39502;SDS011;26970;49.900;10.774;2022-08-27T11:22:39;16.35;;;13.38;;
39502;SDS011;26970;49.900;10.774;2022-08-27T11:25:17;14.55;;;11.48;;
39502;SDS011;26970;49.900;10.774;2022-08-27T11:28:11;15.77;;;13.63;;
39502;SDS011;26970;49.900;10.774;2022-08-27T11:35:52;15.20;;;9.57;;
39502;SDS011;26970;49.900;10.774;2022-08-27T11:38:36;12.15;;;8.70;;
39502;SDS011;26970;49.900;10.774;2022-08-27T11:44:05;9.85;;;8.30;;
39502;SDS011;26970;49.900;10.774;2022-08-27T11:46:41;9.80;;;7.90;;
39502;SDS011;26970;49.900;10.774;2022-08-27T11:49:58;9.98;;;7.20;;
39502;SDS011;26970;49.900;10.774;2022-08-27T11:52:05;11.07;;;7.22;;
39502;SDS011;26970;49.900;10.774;2022-08-27T11:54:42;8.00;;;6.88;;
39502;SDS011;26970;49.900;10.774;2022-08-27T11:59:39;9.48;;;7.63;;
39502;SDS011;26970;49.900;10.774;2022-08-27T12:02:21;9.02;;;7.53;;
39502;SDS011;26970;49.900;10.774;2022-08-27T12:04:53;11.15;;;6.88;;
39502;SDS011;26970;49.900;10.774;2022-08-27T12:07:35;8.50;;;5.72;;
39502;SDS011;26970;49.900;10.774;2022-08-27T12:12:59;6.30;;;5.38;;
39502;SDS011;26970;49.900;10.774;2022-08-27T12:16:21;8.50;;;5.93;;
39502;SDS011;26970;49.900;10.774;2022-08-27T12:25:54;7.45;;;5.22;;
39502;SDS011;26970;49.900;10.774;2022-08-27T12:28:22;8.23;;;5.97;;
39502;SDS011;26970;49.900;10.774;2022-08-27T12:30:48;7.95;;;5.82;;
39502;SDS011;26970;49.900;10.774;2022-08-27T12:35:50;8.18;;;6.57;;
39502;SDS011;26970;49.900;10.774;2022-08-27T12:38:19;8.90;;;5.93;;
39502;SDS011;26970;49.900;10.774;2022-08-27T12:41:03;9.57;;;6.53;;
39502;SDS011;26970;49.900;10.774;2022-08-27T12:43:35;10.60;;;6.88;;
39502;SDS011;26970;49.900;10.774;2022-08-27T12:48:47;7.85;;;6.75;;
39502;SDS011;26970;49.900;10.774;2022-08-27T12:53:56;9.95;;;7.80;;
39502;SDS011;26970;49.900;10.774;2022-08-27T12:56:53;7.72;;;6.93;;
39502;SDS011;26970;49.900;10.774;2022-08-27T13:02:24;8.32;;;6.65;;
39502;SDS011;26970;49.900;10.774;2022-08-27T13:05:10;9.98;;;6.88;;
39502;SDS011;26970;49.900;10.774;2022-08-27T13:07:41;9.65;;;8.32;;
39502;SDS011;26970;49.900;10.774;2022-08-27T13:10:10;10.65;;;8.30;;
39502;SDS011;26970;49.900;10.774;2022-08-27T13:12:39;11.13;;;7.40;;
39502;SDS011;26970;49.900;10.774;2022-08-27T13:15:06;11.15;;;8.00;;
39502;SDS011;26970;49.900;10.774;2022-08-27T13:17:41;13.90;;;7.03;;
39502;SDS011;26970;49.900;10.774;2022-08-27T13:20:22;9.40;;;6.82;;
39502;SDS011;26970;49.900;10.774;2022-08-27T13:22:49;8.80;;;7.15;;
39502;SDS011;26970;49.900;10.774;2022-08-27T13:25:22;9.63;;;7.07;;
39502;SDS011;26970;49.900;10.774;2022-08-27T13:27:55;10.82;;;7.30;;
39502;SDS011;26970;49.900;10.774;2022-08-27T13:30:31;9.35;;;7.40;;
39502;SDS011;26970;49.900;10.774;2022-08-27T13:33:09;10.23;;;7.13;;
39502;SDS011;26970;49.900;10.774;2022-08-27T13:35:39;10.73;;;6.90;;
39502;SDS011;26970;49.900;10.774;2022-08-27T13:38:07;15.60;;;7.95;;
39502;SDS011;26970;49.900;10.774;2022-08-27T13:40:37;9.40;;;7.30;;
39502;SDS011;26970;49.900;10.774;2022-08-27T13:43:33;10.35;;;6.65;;
39502;SDS011;26970;49.900;10.774;2022-08-27T13:46:14;8.68;;;6.82;;
39502;SDS011;26970;49.900;10.774;2022-08-27T13:48:46;9.88;;;7.47;;
39502;SDS011;26970;49.900;10.774;2022-08-27T13:51:15;9.60;;;7.47;;
39502;SDS011;26970;49.900;10.774;2022-08-27T13:53:53;9.00;;;7.10;;
39502;SDS011;26970;49.900;10.774;2022-08-27T13:57:00;9.05;;;7.28;;
39502;SDS011;26970;49.900;10.774;2022-08-27T13:59:30;9.68;;;7.78;;
39502;SDS011;26970;49.900;10.774;2022-08-27T14:01:58;8.38;;;6.50;;
39502;SDS011;26970;49.900;10.774;2022-08-27T14:04:36;13.73;;;7.50;;
39502;SDS011;26970;49.900;10.774;2022-08-27T14:07:07;10.07;;;7.15;;
39502;SDS011;26970;49.900;10.774;2022-08-27T14:09:33;10.05;;;6.25;;
39502;SDS011;26970;49.900;10.774;2022-08-27T14:12:30;10.25;;;7.20;;
39502;SDS011;26970;49.900;10.774;2022-08-27T14:18:01;8.60;;;7.03;;
39502;SDS011;26970;49.900;10.774;2022-08-27T14:20:28;9.18;;;6.80;;
39502;SDS011;26970;49.900;10.774;2022-08-27T14:22:54;10.27;;;6.60;;
39502;SDS011;26970;49.900;10.774;2022-08-27T14:25:20;9.15;;;6.78;;
39502;SDS011;26970;49.900;10.774;2022-08-27T14:27:45;8.85;;;6.75;;
39502;SDS011;26970;49.900;10.774;2022-08-27T14:30:14;8.10;;;6.45;;
39502;SDS011;26970;49.900;10.774;2022-08-27T14:32:41;11.10;;;7.25;;
39502;SDS011;26970;49.900;10.774;2022-08-27T14:35:08;9.00;;;6.57;;
39502;SDS011;26970;49.900;10.774;2022-08-27T14:37:35;10.98;;;7.70;;
39502;SDS011;26970;49.900;10.774;2022-08-27T14:40:05;10.15;;;7.00;;
39502;SDS011;26970;49.900;10.774;2022-08-27T14:42:31;8.52;;;6.57;;
39502;SDS011;26970;49.900;10.774;2022-08-27T14:44:56;11.77;;;7.30;;
39502;SDS011;26970;49.900;10.774;2022-08-27T14:47:22;9.55;;;6.78;;
39502;SDS011;26970;49.900;10.774;2022-08-27T14:49:47;8.88;;;7.30;;
39502;SDS011;26970;49.900;10.774;2022-08-27T14:52:13;8.38;;;6.90;;
39502;SDS011;26970;49.900;10.774;2022-08-27T14:54:39;8.75;;;7.15;;
39502;SDS011;26970;49.900;10.774;2022-08-27T14:57:07;8.73;;;6.65;;
39502;SDS011;26970;49.900;10.774;2022-08-27T14:59:33;10.27;;;7.10;;
39502;SDS011;26970;49.900;10.774;2022-08-27T15:02:00;9.43;;;7.10;;
39502;SDS011;26970;49.900;10.774;2022-08-27T15:04:28;10.70;;;6.57;;
39502;SDS011;26970;49.900;10.774;2022-08-27T15:06:54;10.80;;;7.28;;
39502;SDS011;26970;49.900;10.774;2022-08-27T15:09:20;11.43;;;6.50;;
39502;SDS011;26970;49.900;10.774;2022-08-27T15:11:45;11.20;;;6.45;;
39502;SDS011;26970;49.900;10.774;2022-08-27T15:14:19;11.40;;;6.38;;
39502;SDS011;26970;49.900;10.774;2022-08-27T15:16:47;11.02;;;6.25;;
39502;SDS011;26970;49.900;10.774;2022-08-27T15:19:13;8.27;;;6.13;;
39502;SDS011;26970;49.900;10.774;2022-08-27T15:21:40;8.40;;;5.70;;
39502;SDS011;26970;49.900;10.774;2022-08-27T15:24:18;8.18;;;5.43;;
39502;SDS011;26970;49.900;10.774;2022-08-27T15:26:46;7.97;;;5.65;;
39502;SDS011;26970;49.900;10.774;2022-08-27T15:29:13;8.40;;;5.57;;
39502;SDS011;26970;49.900;10.774;2022-08-27T15:31:39;11.35;;;5.60;;
39502;SDS011;26970;49.900;10.774;2022-08-27T15:34:05;11.05;;;5.53;;
39502;SDS011;26970;49.900;10.774;2022-08-27T15:36:31;9.27;;;5.15;;
39502;SDS011;26970;49.900;10.774;2022-08-27T15:38:57;10.18;;;5.82;;
39502;SDS011;26970;49.900;10.774;2022-08-27T15:41:23;7.05;;;5.22;;
39502;SDS011;26970;49.900;10.774;2022-08-27T15:43:48;8.60;;;5.57;;
39502;SDS011;26970;49.900;10.774;2022-08-27T15:46:14;6.68;;;5.20;;
39502;SDS011;26970;49.900;10.774;2022-08-27T15:48:40;8.18;;;5.40;;
39502;SDS011;26970;49.900;10.774;2022-08-27T15:51:09;7.20;;;5.63;;
39502;SDS011;26970;49.900;10.774;2022-08-27T15:53:37;10.07;;;5.63;;
39502;SDS011;26970;49.900;10.774;2022-08-27T15:56:04;8.10;;;5.60;;